Terminal Aerodrome Forecast
Issued by NWS

Home | Current Version | Previous Version | Graphics & Text | Print | Product List | Glossary On
Versions: 1 2 3 4 5 6 7 8 9 10 11 12 13 14 15 16 17 18 19 20 21
991
FTUS43 KLSX 231720
TAFSUS
TAF
KSUS 231720Z 2318/2418 VRB04KT P6SM FEW200
     FM240700 00000KT 4SM BR FEW200
      TEMPO 2408/2412 2SM BR
     FM241200 16005KT P6SM FEW200=

USA.gov is the U.S. government's official web portal to all federal, state and local government web resources and services.